Flinders Reef, Australia
Current Conditions -  °F | °C
As of 10:30 PM on Wednesday 22 Oct 2014 (Local Time) from YBTL Reporting Station
Scattered Clouds Scattered Clouds  
Wind Chill: 73°   Ceiling: Unl
Heat Index: 73°   Visibility: 6mi
Dew Point: 63°   Wind: 9mph
Humidity: 69%   Direction: 90°E
Pressure: 30.12"   Gusts: NA
Location:  17.72°S, 148.43°E
Report Text: YBTL 221230Z AUTO 09008KT 9999 // SCT038 23/17 Q1020
Loading
Personal Weather Stations






























Interactive Weather Map
Tropical Storm Tracking
New forecast layout! Learn more

10-Day Weather Forecast

Advertisements
Track Severe Weather on mobile